Observation data for Knox City on 03/08/2018      Previous  Date       Current Mesonet Observations  Soil Data  Daily Summary Page  Observations in Plain Language
KKN1 080600Z 16006KT 07/M06 A3021 RMK A01 T00681061  RH  039%=      5-min Rain = 0
KKN1 080605Z 16005KT 07/M06 A3022 RMK A01 T00671061  RH  040%=      5-min Rain = 0
KKN1 080610Z 15005KT 07/M06 A3022 RMK A01 T00671060  RH  040%=      5-min Rain = 0
KKN1 080615Z 16005KT 07/M06 A3022 RMK A01 T00681060  RH  040%=      5-min Rain = 0
KKN1 080620Z 16004KT 07/M06 A3022 RMK A01 T00671060  RH  040%=      5-min Rain = 0
KKN1 080625Z 17005KT 07/M06 A3022 RMK A01 T00671059  RH  041%=      5-min Rain = 0
KKN1 080630Z 16006KT 07/M06 A3022 RMK A01 T00671059  RH  041%=      5-min Rain = 0
KKN1 080635Z 17005KT 07/M06 A3021 RMK A01 T00661058  RH  041%=      5-min Rain = 0
KKN1 080640Z 17004KT 06/M06 A3021 RMK A01 T00641058  RH  042%=      5-min Rain = 0
KKN1 080645Z 17004KT 06/M06 A3022 RMK A01 T00621057  RH  042%=      5-min Rain = 0
KKN1 080650Z 17004KT 06/M06 A3021 RMK A01 T00611057  RH  043%=      5-min Rain = 0
KKN1 080655Z 18004KT 06/M06 A3022 RMK A01 T00601057  RH  044%=      5-min Rain = 0
KKN1 080700Z 18005KT 06/M06 A3021 RMK A01 T00591056  RH  044%=      5-min Rain = 0
KKN1 080705Z 18005KT 06/M06 A3021 RMK A01 T00581055  RH  044%=      5-min Rain = 0
KKN1 080710Z 17005KT 06/M06 A3021 RMK A01 T00581055  RH  045%=      5-min Rain = 0
KKN1 080715Z 17005KT 06/M06 A3021 RMK A01 T00581055  RH  044%=      5-min Rain = 0
KKN1 080720Z 17005KT 06/M06 A3021 RMK A01 T00581055  RH  044%=      5-min Rain = 0
KKN1 080725Z 18003KT 06/M05 A3021 RMK A01 T00581054  RH  045%=      5-min Rain = 0
KKN1 080730Z 18004KT 06/M05 A3021 RMK A01 T00581053  RH  045%=      5-min Rain = 0
KKN1 080735Z 18003KT 06/M05 A3021 RMK A01 T00571053  RH  046%=      5-min Rain = 0
KKN1 080740Z 19004KT 06/M05 A3021 RMK A01 T00551054  RH  046%=      5-min Rain = 0
KKN1 080745Z 18005KT 06/M05 A3021 RMK A01 T00551054  RH  046%=      5-min Rain = 0
KKN1 080750Z 18006KT 05/M05 A3021 RMK A01 T00521052  RH  048%=      5-min Rain = 0
KKN1 080755Z 19006KT 05/M05 A3021 RMK A01 T00501050  RH  049%=      5-min Rain = 0
KKN1 080800Z 19006KT 05/M05 A3021 RMK A01 T00501048  RH  049%=      5-min Rain = 0
KKN1 080805Z 19006KT 05/M05 A3021 RMK A01 T00511048  RH  049%=      5-min Rain = 0
KKN1 080810Z 20005KT 05/M05 A3021 RMK A01 T00521047  RH  049%=      5-min Rain = 0
KKN1 080815Z 22004KT 05/M05 A3021 RMK A01 T00531047  RH  049%=      5-min Rain = 0
KKN1 080820Z 23003KT 05/M05 A3021 RMK A01 T00531047  RH  049%=      5-min Rain = 0
KKN1 080825Z 24003KT 05/M05 A302 RMK A01 T00511046  RH  050%=      5-min Rain = 0
KKN1 080830Z 25002KT 05/M05 A302 RMK A01 T00491045  RH  051%=      5-min Rain = 0
KKN1 080835Z 24003KT 05/M05 A302 RMK A01 T00491045  RH  051%=      5-min Rain = 0
KKN1 080840Z 24002KT 05/M05 A302 RMK A01 T00521047  RH  050%=      5-min Rain = 0
KKN1 080845Z 24002KT 05/M05 A302 RMK A01 T00531047  RH  049%=      5-min Rain = 0
KKN1 080850Z 24001KT 05/M05 A302 RMK A01 T00521046  RH  049%=      5-min Rain = 0
KKN1 080855Z 24001KT 05/M05 A302 RMK A01 T00521048  RH  049%=      5-min Rain = 0
KKN1 080900Z 24002KT 05/M05 A302 RMK A01 T00541048  RH  048%=      5-min Rain = 0
KKN1 080905Z 24003KT 05/M05 A302 RMK A01 T00541048  RH  048%=      5-min Rain = 0
KKN1 080910Z 25003KT 06/M05 A302 RMK A01 T00561049  RH  047%=      5-min Rain = 0
KKN1 080915Z 24004KT 06/M05 A302 RMK A01 T00571048  RH  047%=      5-min Rain = 0
KKN1 080920Z 23003KT 06/M05 A3019 RMK A01 T00561048  RH  048%=      5-min Rain = 0
KKN1 080925Z 21004KT 05/M05 A3019 RMK A01 T00501046  RH  050%=      5-min Rain = 0
KKN1 080930Z 19004KT 05/M04 A3019 RMK A01 T00451043  RH  054%=      5-min Rain = 0
KKN1 080935Z 20003KT 04/M04 A3019 RMK A01 T00411039  RH  056%=      5-min Rain = 0
KKN1 080940Z 21002KT 04/M04 A3019 RMK A01 T00421039  RH  056%=      5-min Rain = 0
KKN1 080945Z 21002KT 05/M04 A3019 RMK A01 T00451040  RH  055%=      5-min Rain = 0
KKN1 080950Z 21002KT 05/M04 A3019 RMK A01 T00451039  RH  055%=      5-min Rain = 0
KKN1 080955Z 21002KT 04/M04 A3019 RMK A01 T00441039  RH  055%=      5-min Rain = 0
KKN1 081000Z 21002KT 04/M04 A3019 RMK A01 T00431038  RH  056%=      5-min Rain = 0
KKN1 081005Z 20003KT 04/M04 A3019 RMK A01 T00421036  RH  058%=      5-min Rain = 0
KKN1 081010Z 19003KT 04/M04 A3019 RMK A01 T00401035  RH  059%=      5-min Rain = 0
KKN1 081015Z 19003KT 04/M03 A3019 RMK A01 T00401034  RH  059%=      5-min Rain = 0
KKN1 081020Z 19004KT 04/M03 A3019 RMK A01 T00401032  RH  060%=      5-min Rain = 0
KKN1 081025Z 19003KT 04/M03 A3019 RMK A01 T00411031  RH  060%=      5-min Rain = 0
KKN1 081030Z 19003KT 04/M03 A3019 RMK A01 T00431031  RH  059%=      5-min Rain = 0
KKN1 081035Z 19003KT 04/M03 A3019 RMK A01 T00421029  RH  060%=      5-min Rain = 0
KKN1 081040Z 20003KT 04/M03 A3019 RMK A01 T00421029  RH  060%=      5-min Rain = 0
KKN1 081045Z 20003KT 04/M03 A3019 RMK A01 T00441030  RH  059%=      5-min Rain = 0
KKN1 081050Z 20002KT 05/M03 A3019 RMK A01 T00451032  RH  058%=      5-min Rain = 0
KKN1 081055Z 21003KT 05/M03 A3018 RMK A01 T00461032  RH  058%=      5-min Rain = 0
KKN1 081100Z 22003KT 05/M03 A3019 RMK A01 T00471033  RH  057%=      5-min Rain = 0
KKN1 081105Z 22003KT 05/M04 A3019 RMK A01 T00511035  RH  054%=      5-min Rain = 0
KKN1 081110Z 24003KT 05/M04 A3019 RMK A01 T00541036  RH  053%=      5-min Rain = 0
KKN1 081115Z 24003KT 05/M04 A3019 RMK A01 T00541036  RH  053%=      5-min Rain = 0
KKN1 081120Z 23003KT 05/M04 A3019 RMK A01 T00541035  RH  054%=      5-min Rain = 0
KKN1 081125Z 22002KT 05/M03 A3019 RMK A01 T00531034  RH  054%=      5-min Rain = 0
KKN1 081130Z 21002KT 05/M03 A3019 RMK A01 T00511032  RH  056%=      5-min Rain = 0
KKN1 081135Z 20003KT 05/M03 A3019 RMK A01 T00491029  RH  058%=      5-min Rain = 0
KKN1 081140Z 19005KT 05/M03 A3019 RMK A01 T00511030  RH  057%=      5-min Rain = 0
KKN1 081145Z 19006KT 07/M03 A3019 RMK A01 T00661033  RH  050%=      5-min Rain = 0
KKN1 081150Z 20005KT 07/M04 A3019 RMK A01 T00721036  RH  047%=      5-min Rain = 0
KKN1 081155Z 20005KT 07/M04 A3018 RMK A01 T00741038  RH  045%=      5-min Rain = 0
KKN1 081200Z 21005KT 08/M04 A3018 RMK A01 T00751038  RH  045%=      5-min Rain = 0
KKN1 081205Z 20006KT 08/M04 A3018 RMK A01 T00751037  RH  045%=      5-min Rain = 0
KKN1 081210Z 20006KT 08/M04 A3018 RMK A01 T00751037  RH  045%=      5-min Rain = 0
KKN1 081215Z 20006KT 08/M04 A3018 RMK A01 T00751037  RH  046%=      5-min Rain = 0
KKN1 081220Z 19007KT 08/M04 A3018 RMK A01 T00761037  RH  045%=      5-min Rain = 0
KKN1 081225Z 19008KT 08/M04 A3018 RMK A01 T00801039  RH  043%=      5-min Rain = 0
KKN1 081230Z 18009KT 08/M04 A3018 RMK A01 T00821039  RH  043%=      5-min Rain = 0
KKN1 081235Z 18009KT 08/M04 A3018 RMK A01 T00821039  RH  042%=      5-min Rain = 0
KKN1 081240Z 18009KT 08/M04 A3018 RMK A01 T00831039  RH  042%=      5-min Rain = 0
KKN1 081245Z 18009KT 08/M04 A3018 RMK A01 T00831039  RH  042%=      5-min Rain = 0
KKN1 081250Z 19009KT 08/M04 A3018 RMK A01 T00821038  RH  043%=      5-min Rain = 0
KKN1 081255Z 19008KT 08/M04 A3018 RMK A01 T00811037  RH  043%=      5-min Rain = 0
KKN1 081300Z 20007KT 08/M04 A3019 RMK A01 T00801037  RH  044%=      5-min Rain = 0
KKN1 081305Z 20006KT 08/M04 A3019 RMK A01 T00801036  RH  044%=      5-min Rain = 0
KKN1 081310Z 20005KT 08/M04 A3019 RMK A01 T00791036  RH  044%=      5-min Rain = 0
KKN1 081315Z 20007KT 08/M03 A3019 RMK A01 T00781034  RH  045%=      5-min Rain = 0
KKN1 081320Z 20007KT 08/M03 A3019 RMK A01 T00781033  RH  046%=      5-min Rain = 0
KKN1 081325Z 20007KT 08/M03 A3019 RMK A01 T00791033  RH  045%=      5-min Rain = 0
KKN1 081330Z 20007KT 08/M03 A302 RMK A01 T00801032  RH  046%=      5-min Rain = 0
KKN1 081335Z 20006KT 08/M03 A302 RMK A01 T00801030  RH  046%=      5-min Rain = 0
KKN1 081340Z 21006KT 08/M03 A302 RMK A01 T00811030  RH  046%=      5-min Rain = 0
KKN1 081345Z 21005KT 08/M03 A302 RMK A01 T00821029  RH  046%=      5-min Rain = 0
KKN1 081350Z 21006KT 08/M03 A302 RMK A01 T00821028  RH  046%=      5-min Rain = 0
KKN1 081355Z 22005KT 08/M03 A302 RMK A01 T00831027  RH  046%=      5-min Rain = 0
KKN1 081400Z 21006KT 08/M03 A302 RMK A01 T00841027  RH  046%=      5-min Rain = 0
KKN1 081405Z 21005KT 09/M03 A302 RMK A01 T00851026  RH  046%=      5-min Rain = 0
KKN1 081410Z 21006KT 09/M03 A302 RMK A01 T00871026  RH  046%=      5-min Rain = 0
KKN1 081415Z 20006KT 09/M03 A302 RMK A01 T00881025  RH  045%=      5-min Rain = 0
KKN1 081420Z 19006KT 09/M02 A302 RMK A01 T00911024  RH  045%=      5-min Rain = 0
KKN1 081425Z 19007KT 09/M02 A3019 RMK A01 T00931024  RH  044%=      5-min Rain = 0
KKN1 081430Z 19008KT 10/M03 A3019 RMK A01 T00961025  RH  043%=      5-min Rain = 0
KKN1 081435Z 18009KT 10/M03 A3019 RMK A01 T00981027  RH  042%=      5-min Rain = 0
KKN1 081440Z 19010KT 10/M03 A3019 RMK A01 T01011028  RH  041%=      5-min Rain = 0
KKN1 081445Z 19010KT 10/M03 A3019 RMK A01 T01041028  RH  040%=      5-min Rain = 0
KKN1 081450Z 19010KT 11/M03 A3019 RMK A01 T01071029  RH  039%=      5-min Rain = 0
KKN1 081455Z 18010KT 11/M03 A3019 RMK A01 T01091031  RH  038%=      5-min Rain = 0
KKN1 081500Z 19010KT 11/M03 A3019 RMK A01 T01101032  RH  037%=      5-min Rain = 0
KKN1 081505Z 19011KT 11/M04 A3019 RMK A01 T01111035  RH  036%=      5-min Rain = 0
KKN1 081510Z 19009KT 11/M03 A3019 RMK A01 T01131034  RH  036%=      5-min Rain = 0
KKN1 081515Z 19009KT 12/M04 A3019 RMK A01 T01161035  RH  035%=      5-min Rain = 0
KKN1 081520Z 18009KT 12/M04 A3019 RMK A01 T01171035  RH  035%=      5-min Rain = 0
KKN1 081525Z 18009KT 12/M04 A3019 RMK A01 T01221035  RH  034%=      5-min Rain = 0
KKN1 081530Z 19009KT 13/M03 A3019 RMK A01 T01271033  RH  033%=      5-min Rain = 0
KKN1 081535Z 19009KT 13/M04 A3019 RMK A01 T01261036  RH  033%=      5-min Rain = 0
KKN1 081540Z 19008KT 13/M03 A3019 RMK A01 T01271034  RH  033%=      5-min Rain = 0
KKN1 081545Z 19008KT 13/M03 A3019 RMK A01 T01281034  RH  033%=      5-min Rain = 0
KKN1 081550Z 20009KT 13/M03 A3018 RMK A01 T01331034  RH  031%=      5-min Rain = 0
KKN1 081555Z 20009KT 13/M04 A3018 RMK A01 T01341036  RH  031%=      5-min Rain = 0
KKN1 081600Z 19009KT 14/M04 A3018 RMK A01 T01351038  RH  030%=      5-min Rain = 0
KKN1 081605Z 20011KT 14/M04 A3018 RMK A01 T01361040  RH  030%=      5-min Rain = 0
KKN1 081610Z 19009KT 14/M04 A3018 RMK A01 T01401038  RH  029%=      5-min Rain = 0
KKN1 081615Z 19010KT 14/M04 A3017 RMK A01 T01441039  RH  028%=      5-min Rain = 0
KKN1 081620Z 19009KT 15/M04 A3017 RMK A01 T01471038  RH  028%=      5-min Rain = 0
KKN1 081625Z 18009KT 15/M04 A3017 RMK A01 T01461039  RH  028%=      5-min Rain = 0
KKN1 081630Z 18009KT 15/M04 A3017 RMK A01 T01461040  RH  028%=      5-min Rain = 0
KKN1 081635Z 18008KT 15/M04 A3017 RMK A01 T01481039  RH  027%=      5-min Rain = 0
KKN1 081640Z 19008KT 15/M04 A3017 RMK A01 T01501041  RH  027%=      5-min Rain = 0
KKN1 081645Z 19009KT 15/M04 A3016 RMK A01 T01511041  RH  027%=      5-min Rain = 0
KKN1 081650Z 20009KT 15/M04 A3016 RMK A01 T01531042  RH  026%=      5-min Rain = 0
KKN1 081655Z 21009KT 16/M04 A3016 RMK A01 T01591040  RH  025%=      5-min Rain = 0
KKN1 081700Z 21008KT 16/M04 A3016 RMK A01 T01591043  RH  025%=      5-min Rain = 0
KKN1 081705Z 20009KT 16/M04 A3015 RMK A01 T01631042  RH  025%=      5-min Rain = 0
KKN1 081710Z 20010KT 16/M04 A3015 RMK A01 T01641044  RH  024%=      5-min Rain = 0
KKN1 081715Z 20011G16KT 16/M04 A3015 RMK A01 T01601044  RH  024%=      5-min Rain = 0
KKN1 081720Z 20013KT 17/M04 A3014 RMK A01 T01671042  RH  024%=      5-min Rain = 0
KKN1 081725Z 19014G19KT 17/M05 A3014 RMK A01 T01731045  RH  022%=      5-min Rain = 0
KKN1 081730Z 20013KT 17/M05 A3014 RMK A01 T01731045  RH  022%=      5-min Rain = 0
KKN1 081735Z 20012KT 18/M05 A3014 RMK A01 T01781045  RH  022%=      5-min Rain = 0
KKN1 081740Z 20013G19KT 18/M05 A3013 RMK A01 T01811045  RH  021%=      5-min Rain = 0
KKN1 081745Z 19012KT 19/M05 A3013 RMK A01 T01851046  RH  021%=      5-min Rain = 0
KKN1 081750Z 19015G22KT 19/M05 A3013 RMK A01 T01891048  RH  020%=      5-min Rain = 0
KKN1 081755Z 19016G21KT 19/M05 A3012 RMK A01 T01921049  RH  019%=      5-min Rain = 0
KKN1 081800Z 20016G21KT 20/M05 A3012 RMK A01 T01951051  RH  019%=      5-min Rain = 0
KKN1 081805Z 20012G17KT 20/M05 A3011 RMK A01 T01971051  RH  019%=      5-min Rain = 0
KKN1 081810Z 18016G25KT 20/M05 A3011 RMK A01 T01961053  RH  018%=      5-min Rain = 0
KKN1 081815Z 19014G21KT 20/M05 A3011 RMK A01 T02001053  RH  018%=      5-min Rain = 0
KKN1 081820Z 19016KT 20/M06 A301 RMK A01 T02041057  RH  017%=      5-min Rain = 0
KKN1 081825Z 19015G20KT 21/M06 A301 RMK A01 T02061061  RH  016%=      5-min Rain = 0
KKN1 081830Z 19015KT 21/M06 A3009 RMK A01 T02051061  RH  016%=      5-min Rain = 0
KKN1 081835Z 18017G22KT 20/M06 A3008 RMK A01 T02041064  RH  016%=      5-min Rain = 0
KKN1 081840Z 18018G23KT 20/M07 A3008 RMK A01 T02031066  RH  016%=      5-min Rain = 0
KKN1 081845Z 19017G22KT 20/M07 A3007 RMK A01 T02041066  RH  016%=      5-min Rain = 0
KKN1 081850Z 19014G21KT 21/M06 A3007 RMK A01 T02131062  RH  015%=      5-min Rain = 0
KKN1 081855Z 18016G21KT 22/M07 A3006 RMK A01 T02151065  RH  015%=      5-min Rain = 0
KKN1 081900Z 19017G23KT 22/M06 A3006 RMK A01 T02211064  RH  014%=      5-min Rain = 0
KKN1 081905Z 19017G23KT 22/M07 A3006 RMK A01 T02211066  RH  014%=      5-min Rain = 0
KKN1 081910Z 20016KT 22/M07 A3006 RMK A01 T02171068  RH  014%=      5-min Rain = 0
KKN1 081915Z 18016G21KT 22/M06 A3005 RMK A01 T02221064  RH  014%=      5-min Rain = 0
KKN1 081920Z 19020G27KT 22/M07 A3005 RMK A01 T02241066  RH  014%=      5-min Rain = 0
KKN1 081925Z 18016G22KT 22/M07 A3005 RMK A01 T02231065  RH  014%=      5-min Rain = 0
KKN1 081930Z 17017G24KT 22/M06 A3004 RMK A01 T02241064  RH  014%=      5-min Rain = 0
KKN1 081935Z 19017G24KT 23/M07 A3004 RMK A01 T02261065  RH  014%=      5-min Rain = 0
KKN1 081940Z 20016G23KT 23/M07 A3004 RMK A01 T02271065  RH  014%=      5-min Rain = 0
KKN1 081945Z 21019G25KT 23/M07 A3003 RMK A01 T02301066  RH  013%=      5-min Rain = 0
KKN1 081950Z 20018G23KT 23/M07 A3003 RMK A01 T02311066  RH  013%=      5-min Rain = 0
KKN1 081955Z 19017G23KT 23/M06 A3002 RMK A01 T02341063  RH  013%=      5-min Rain = 0
KKN1 082000Z 19018G25KT 23/M07 A3002 RMK A01 T02291067  RH  013%=      5-min Rain = 0
KKN1 082005Z 19017G22KT 23/M07 A3002 RMK A01 T02261065  RH  014%=      5-min Rain = 0
KKN1 082010Z 20016G22KT 23/M06 A3001 RMK A01 T02281064  RH  014%=      5-min Rain = 0
KKN1 082015Z 18019G25KT 23/M07 A3001 RMK A01 T02261067  RH  014%=      5-min Rain = 0
KKN1 082020Z 19016G21KT 23/M06 A3001 RMK A01 T02271062  RH  014%=      5-min Rain = 0
KKN1 082025Z 20016G22KT 24/M06 A3001 RMK A01 T02351060  RH  014%=      5-min Rain = 0
KKN1 082030Z 20019G25KT 23/M06 A3001 RMK A01 T02301063  RH  014%=      5-min Rain = 0
KKN1 082035Z 19018G28KT 23/M06 A30 RMK A01 T02301064  RH  014%=      5-min Rain = 0
KKN1 082040Z 20017G26KT 23/M06 A30 RMK A01 T02301061  RH  014%=      5-min Rain = 0
KKN1 082045Z 19018G25KT 23/M06 A30 RMK A01 T02301061  RH  014%=      5-min Rain = 0
KKN1 082050Z 19015G20KT 23/M06 A2999 RMK A01 T02341059  RH  014%=      5-min Rain = 0
KKN1 082055Z 18018G25KT 23/M06 A2999 RMK A01 T02311058  RH  014%=      5-min Rain = 0
KKN1 082100Z 19019G24KT 23/M06 A2999 RMK A01 T02311058  RH  014%=      5-min Rain = 0
KKN1 082105Z 18019G24KT 23/M06 A2999 RMK A01 T02281056  RH  015%=      5-min Rain = 0
KKN1 082110Z 18017G25KT 23/M05 A2998 RMK A01 T02261054  RH  015%=      5-min Rain = 0
KKN1 082115Z 20018G25KT 23/M06 A2999 RMK A01 T02271056  RH  015%=      5-min Rain = 0
KKN1 082120Z 17020G27KT 23/M05 A2998 RMK A01 T02271052  RH  015%=      5-min Rain = 0
KKN1 082125Z 18020G25KT 23/M05 A2998 RMK A01 T02271051  RH  015%=      5-min Rain = 0
KKN1 082130Z 18019G25KT 22/M05 A2998 RMK A01 T02231049  RH  016%=      5-min Rain = 0
KKN1 082135Z 18019G26KT 23/M05 A2998 RMK A01 T02251046  RH  016%=      5-min Rain = 0
KKN1 082140Z 18023KT 23/M05 A2998 RMK A01 T02251051  RH  016%=      5-min Rain = 0
KKN1 082145Z 18021G26KT 22/M05 A2998 RMK A01 T02211052  RH  016%=      5-min Rain = 0
KKN1 082150Z 19020G25KT 22/M05 A2998 RMK A01 T02211051  RH  016%=      5-min Rain = 0
KKN1 082155Z 19018G26KT 22/M05 A2997 RMK A01 T02201050  RH  016%=      5-min Rain = 0
KKN1 082200Z 18016G23KT 22/M05 A2997 RMK A01 T02201049  RH  016%=      5-min Rain = 0
KKN1 082205Z 18019G25KT 22/M05 A2997 RMK A01 T02191050  RH  016%=      5-min Rain = 0
KKN1 082210Z 18019G24KT 22/M05 A2996 RMK A01 T02181049  RH  016%=      5-min Rain = 0
KKN1 082215Z 18018G23KT 22/M05 A2996 RMK A01 T02201051  RH  016%=      5-min Rain = 0
KKN1 082220Z 18017G23KT 22/M05 A2996 RMK A01 T02211053  RH  016%=      5-min Rain = 0
KKN1 082225Z 19015G21KT 22/M05 A2996 RMK A01 T02201054  RH  016%=      5-min Rain = 0
KKN1 082230Z 19018G24KT 22/M06 A2995 RMK A01 T02191057  RH  015%=      5-min Rain = 0
KKN1 082235Z 18016G22KT 22/M06 A2995 RMK A01 T02211056  RH  015%=      5-min Rain = 0
KKN1 082240Z 18016G22KT 22/M06 A2995 RMK A01 T02201057  RH  015%=      5-min Rain = 0
KKN1 082245Z 19016G21KT 22/M06 A2995 RMK A01 T02201062  RH  015%=      5-min Rain = 0
KKN1 082250Z 19017G24KT 22/M07 A2995 RMK A01 T02221065  RH  014%=      5-min Rain = 0
KKN1 082255Z 18014G20KT 22/M06 A2995 RMK A01 T02211063  RH  015%=      5-min Rain = 0
KKN1 082300Z 18017G22KT 22/M07 A2994 RMK A01 T02211067  RH  014%=      5-min Rain = 0
KKN1 082305Z 19016G24KT 22/M07 A2994 RMK A01 T02221067  RH  014%=      5-min Rain = 0
KKN1 082310Z 18018G24KT 22/M07 A2994 RMK A01 T02211067  RH  014%=      5-min Rain = 0
KKN1 082315Z 18018KT 22/M07 A2994 RMK A01 T02211067  RH  014%=      5-min Rain = 0
KKN1 082320Z 19018KT 22/M07 A2994 RMK A01 T02211069  RH  014%=      5-min Rain = 0
KKN1 082325Z 18018G23KT 22/M07 A2994 RMK A01 T02211067  RH  014%=      5-min Rain = 0
KKN1 082330Z 18017KT 22/M07 A2994 RMK A01 T02191069  RH  014%=      5-min Rain = 0
KKN1 082335Z 18015KT 22/M07 A2994 RMK A01 T02181065  RH  015%=      5-min Rain = 0
KKN1 082340Z 18017G22KT 22/M07 A2994 RMK A01 T02171065  RH  015%=      5-min Rain = 0
KKN1 082345Z 18018G23KT 22/M07 A2994 RMK A01 T02151067  RH  015%=      5-min Rain = 0
KKN1 082350Z 18014KT 21/M06 A2994 RMK A01 T02111064  RH  015%=      5-min Rain = 0
KKN1 082355Z 18017G22KT 21/M07 A2994 RMK A01 T02091065  RH  015%=      5-min Rain = 0
KKN1 090000Z 18018G23KT 21/M06 A2994 RMK A01 T02071064  RH  016%=      5-min Rain = 0
KKN1 090005Z 18015KT 21/M07 A2994 RMK A01 T02051066  RH  016%=      5-min Rain = 0
KKN1 090010Z 18017G22KT 20/M07 A2994 RMK A01 T02031069  RH  015%=      5-min Rain = 0
KKN1 090015Z 18016G21KT 20/M07 A2994 RMK A01 T02011068  RH  016%=      5-min Rain = 0
KKN1 090020Z 18016G22KT 20/M07 A2995 RMK A01 T02001069  RH  016%=      5-min Rain = 0
KKN1 090025Z 18016KT 20/M07 A2995 RMK A01 T01991070  RH  016%=      5-min Rain = 0
KKN1 090030Z 18015G21KT 20/M07 A2995 RMK A01 T01971068  RH  016%=      5-min Rain = 0
KKN1 090035Z 17013KT 19/M06 A2995 RMK A01 T01921064  RH  017%=      5-min Rain = 0
KKN1 090040Z 17012KT 19/M06 A2995 RMK A01 T01871062  RH  018%=      5-min Rain = 0
KKN1 090045Z 17011KT 18/M06 A2996 RMK A01 T01831061  RH  019%=      5-min Rain = 0
KKN1 090050Z 16010KT 18/M06 A2996 RMK A01 T01781061  RH  019%=      5-min Rain = 0
KKN1 090055Z 16009KT 18/M06 A2996 RMK A01 T01751061  RH  020%=      5-min Rain = 0
KKN1 090100Z 15009KT 17/M06 A2996 RMK A01 T01711061  RH  020%=      5-min Rain = 0
KKN1 090105Z 15008KT 17/M06 A2996 RMK A01 T01671061  RH  021%=      5-min Rain = 0
KKN1 090110Z 15009KT 16/M06 A2996 RMK A01 T01601059  RH  022%=      5-min Rain = 0
KKN1 090115Z 15010KT 16/M06 A2996 RMK A01 T01561057  RH  023%=      5-min Rain = 0
KKN1 090120Z 14009KT 15/M06 A2996 RMK A01 T01511056  RH  024%=      5-min Rain = 0
KKN1 090125Z 14010KT 15/M06 A2996 RMK A01 T01491055  RH  024%=      5-min Rain = 0
KKN1 090130Z 15011KT 15/M06 A2995 RMK A01 T01501056  RH  024%=      5-min Rain = 0
KKN1 090135Z 15011KT 15/M06 A2995 RMK A01 T01531056  RH  024%=      5-min Rain = 0
KKN1 090140Z 16011KT 15/M06 A2995 RMK A01 T01521056  RH  024%=      5-min Rain = 0
KKN1 090145Z 16011KT 15/M06 A2995 RMK A01 T01501056  RH  024%=      5-min Rain = 0
KKN1 090150Z 16012KT 15/M06 A2996 RMK A01 T01501056  RH  024%=      5-min Rain = 0
KKN1 090155Z 16011KT 15/M06 A2996 RMK A01 T01491057  RH  024%=      5-min Rain = 0
KKN1 090200Z 16012KT 15/M06 A2996 RMK A01 T01501057  RH  024%=      5-min Rain = 0
KKN1 090205Z 16012KT 15/M06 A2996 RMK A01 T01481057  RH  024%=      5-min Rain = 0
KKN1 090210Z 16012KT 15/M06 A2996 RMK A01 T01461057  RH  024%=      5-min Rain = 0
KKN1 090215Z 16012KT 15/M06 A2996 RMK A01 T01471057  RH  024%=      5-min Rain = 0
KKN1 090220Z 16013KT 15/M06 A2997 RMK A01 T01491056  RH  024%=      5-min Rain = 0
KKN1 090225Z 17014KT 15/M06 A2997 RMK A01 T01501056  RH  024%=      5-min Rain = 0
KKN1 090230Z 17013KT 15/M06 A2996 RMK A01 T01491055  RH  024%=      5-min Rain = 0
KKN1 090235Z 17015KT 15/M06 A2996 RMK A01 T01481055  RH  024%=      5-min Rain = 0
KKN1 090240Z 18016KT 15/M06 A2996 RMK A01 T01521058  RH  023%=      5-min Rain = 0
KKN1 090245Z 19017KT 16/M06 A2996 RMK A01 T01551063  RH  022%=      5-min Rain = 0
KKN1 090250Z 18016G21KT 16/M07 A2995 RMK A01 T01561066  RH  021%=      5-min Rain = 0
KKN1 090255Z 18017KT 16/M07 A2995 RMK A01 T01561068  RH  021%=      5-min Rain = 0
KKN1 090300Z 18015KT 16/M07 A2995 RMK A01 T01561069  RH  021%=      5-min Rain = 0
KKN1 090305Z 18015KT 16/M07 A2995 RMK A01 T01551070  RH  021%=      5-min Rain = 0
KKN1 090310Z 18015KT 15/M07 A2995 RMK A01 T01541069  RH  021%=      5-min Rain = 0
KKN1 090315Z 18014KT 15/M07 A2995 RMK A01 T01521069  RH  021%=      5-min Rain = 0
KKN1 090320Z 18015KT 15/M07 A2995 RMK A01 T01501069  RH  022%=      5-min Rain = 0
KKN1 090325Z 18015KT 15/M07 A2995 RMK A01 T01481069  RH  022%=      5-min Rain = 0
KKN1 090330Z 18015KT 15/M07 A2995 RMK A01 T01471069  RH  022%=      5-min Rain = 0
KKN1 090335Z 19015KT 15/M07 A2995 RMK A01 T01461069  RH  022%=      5-min Rain = 0
KKN1 090340Z 18015KT 15/M07 A2995 RMK A01 T01451068  RH  022%=      5-min Rain = 0
KKN1 090345Z 19016KT 15/M07 A2994 RMK A01 T01451069  RH  022%=      5-min Rain = 0
KKN1 090350Z 18015KT 15/M07 A2994 RMK A01 T01461071  RH  022%=      5-min Rain = 0
KKN1 090355Z 18015KT 15/M07 A2994 RMK A01 T01451071  RH  022%=      5-min Rain = 0
KKN1 090400Z 18014KT 14/M07 A2994 RMK A01 T01421070  RH  023%=      5-min Rain = 0
KKN1 090405Z 18014KT 14/M07 A2994 RMK A01 T01401070  RH  023%=      5-min Rain = 0
KKN1 090410Z 18015KT 14/M07 A2994 RMK A01 T01411071  RH  023%=      5-min Rain = 0
KKN1 090415Z 18015KT 14/M07 A2994 RMK A01 T01401072  RH  023%=      5-min Rain = 0
KKN1 090420Z 18014KT 14/M07 A2994 RMK A01 T01391073  RH  023%=      5-min Rain = 0
KKN1 090425Z 18014KT 14/M07 A2993 RMK A01 T01391074  RH  022%=      5-min Rain = 0
KKN1 090430Z 18012G17KT 14/M07 A2994 RMK A01 T01381074  RH  022%=      5-min Rain = 0
KKN1 090435Z 18013KT 14/M08 A2994 RMK A01 T01381076  RH  022%=      5-min Rain = 0
KKN1 090440Z 18014KT 14/M08 A2993 RMK A01 T01371076  RH  022%=      5-min Rain = 0
KKN1 090445Z 18015KT 14/M08 A2993 RMK A01 T01381077  RH  022%=      5-min Rain = 0
KKN1 090450Z 18015KT 14/M08 A2993 RMK A01 T01361075  RH  023%=      5-min Rain = 0
KKN1 090455Z 18013KT 13/M07 A2993 RMK A01 T01321072  RH  024%=      5-min Rain = 0
KKN1 090500Z 18014KT 13/M07 A2993 RMK A01 T01311074  RH  024%=      5-min Rain = 0
KKN1 090505Z 18015KT 13/M08 A2992 RMK A01 T01321075  RH  023%=      5-min Rain = 0
KKN1 090510Z 19014KT 13/M08 A2992 RMK A01 T01321076  RH  023%=      5-min Rain = 0
KKN1 090515Z 18015KT 13/M08 A2992 RMK A01 T01331076  RH  023%=      5-min Rain = 0
KKN1 090520Z 18015KT 13/M08 A2992 RMK A01 T01331076  RH  023%=      5-min Rain = 0
KKN1 090525Z 19015KT 13/M08 A2991 RMK A01 T01321075  RH  023%=      5-min Rain = 0
KKN1 090530Z 19015KT 13/M08 A2991 RMK A01 T01321075  RH  023%=      5-min Rain = 0
KKN1 090535Z 19014KT 13/M07 A2991 RMK A01 T01301074  RH  024%=      5-min Rain = 0
KKN1 090540Z 19015KT 13/M07 A2991 RMK A01 T01311074  RH  024%=      5-min Rain = 0
KKN1 090545Z 19014KT 13/M07 A299 RMK A01 T01311073  RH  024%=      5-min Rain = 0
KKN1 090550Z 19014G19KT 13/M07 A299 RMK A01 T01321072  RH  024%=      5-min Rain = 0
KKN1 090555Z 19013KT 13/M07 A299 RMK A01 T01321070  RH  024%=      5-min Rain = 0

Page generated in 0.0349 seconds.